createdAt,value
2023-03-22T00:01:24.973Z,11.33
2023-03-22T00:03:52.318Z,11.32
2023-03-22T00:06:19.338Z,11.27
2023-03-22T00:08:50.570Z,11.27
2023-03-22T00:11:17.937Z,11.24
2023-03-22T00:13:46.869Z,11.22
2023-03-22T00:16:14.851Z,11.21
2023-03-22T00:18:41.733Z,11.20
2023-03-22T00:21:13.352Z,11.18
2023-03-22T00:23:40.790Z,11.14
2023-03-22T00:26:08.567Z,11.11
2023-03-22T00:28:36.564Z,11.08
2023-03-22T00:31:05.274Z,11.06
2023-03-22T00:33:33.403Z,11.07
2023-03-22T00:36:08.652Z,11.07
2023-03-22T00:38:42.942Z,11.07
2023-03-22T00:41:18.958Z,11.07
2023-03-22T00:43:47.071Z,11.01
2023-03-22T00:46:15.277Z,10.99
2023-03-22T00:48:43.384Z,10.97
2023-03-22T00:51:10.811Z,10.95
2023-03-22T00:53:37.620Z,10.91
2023-03-22T00:56:05.630Z,10.87
2023-03-22T00:58:41.407Z,10.79
2023-03-22T01:01:08.221Z,10.71
2023-03-22T01:03:35.046Z,10.74
2023-03-22T01:06:01.853Z,10.74
2023-03-22T01:08:33.221Z,10.75
2023-03-22T01:11:01.162Z,10.76
2023-03-22T01:13:27.956Z,10.76
2023-03-22T01:15:54.416Z,10.74
2023-03-22T01:18:20.855Z,10.59
2023-03-22T01:20:47.435Z,10.74
2023-03-22T01:23:13.929Z,10.71
2023-03-22T01:25:40.873Z,10.70
2023-03-22T01:28:08.655Z,10.70
2023-03-22T01:30:35.768Z,10.61
2023-03-22T01:33:02.823Z,10.61
2023-03-22T01:35:33.149Z,10.52
2023-03-22T01:37:59.757Z,10.45
2023-03-22T01:40:27.521Z,10.37
2023-03-22T01:42:55.230Z,10.33
2023-03-22T01:45:22.426Z,10.32
2023-03-22T01:47:54.874Z,10.31
2023-03-22T01:50:22.978Z,10.29
2023-03-22T01:52:52.128Z,10.27
2023-03-22T01:55:26.009Z,10.22
2023-03-22T01:58:05.460Z,10.17
2023-03-22T02:00:41.274Z,10.09
2023-03-22T02:03:37.073Z,10.01
2023-03-22T02:06:04.351Z,9.97
2023-03-22T02:08:32.375Z,9.91
2023-03-22T02:11:03.247Z,9.89
2023-03-22T02:14:09.736Z,9.86
2023-03-22T02:17:06.803Z,9.82
2023-03-22T02:20:13.326Z,9.80
2023-03-22T02:23:00.764Z,9.77
2023-03-22T02:25:40.399Z,9.72
2023-03-22T02:28:29.341Z,9.63
2023-03-22T02:31:14.041Z,9.56
2023-03-22T02:34:15.530Z,9.52
2023-03-22T02:36:58.303Z,9.46
2023-03-22T02:39:35.300Z,9.44
2023-03-22T02:42:17.579Z,9.41
2023-03-22T02:45:00.383Z,9.39
2023-03-22T02:47:38.551Z,9.36
2023-03-22T02:50:28.495Z,9.37
2023-03-22T02:53:12.842Z,9.35
2023-03-22T02:55:51.168Z,9.35
2023-03-22T02:58:22.865Z,9.32
2023-03-22T03:00:54.423Z,9.26
2023-03-22T03:03:25.486Z,9.24
2023-03-22T03:05:55.851Z,9.22
2023-03-22T03:08:24.902Z,9.18
2023-03-22T03:10:53.272Z,9.18
2023-03-22T03:13:20.005Z,9.17
2023-03-22T03:15:52.623Z,9.18
2023-03-22T03:18:29.584Z,9.20
2023-03-22T03:21:30.233Z,9.21
2023-03-22T03:24:36.618Z,9.17
2023-03-22T03:27:12.821Z,9.05
2023-03-22T03:30:02.886Z,8.94
2023-03-22T03:32:52.448Z,8.85
2023-03-22T03:35:27.215Z,8.77
2023-03-22T03:37:59.197Z,8.70
2023-03-22T03:40:35.183Z,8.56
2023-03-22T03:43:04.703Z,8.44
2023-03-22T03:45:31.160Z,8.38
2023-03-22T03:48:01.007Z,8.30
2023-03-22T03:50:28.008Z,8.24
2023-03-22T03:52:56.054Z,8.21
2023-03-22T03:55:24.087Z,8.19
2023-03-22T03:57:50.792Z,8.17
2023-03-22T04:00:17.975Z,8.18
2023-03-22T04:03:06.285Z,8.15
2023-03-22T04:05:45.824Z,8.13
2023-03-22T04:08:12.522Z,8.16
2023-03-22T04:10:40.685Z,8.17
2023-03-22T04:13:07.371Z,8.16
2023-03-22T04:15:33.904Z,8.17
2023-03-22T04:18:03.744Z,8.10
2023-03-22T04:20:31.536Z,8.06
2023-03-22T04:22:58.070Z,8.05
2023-03-22T04:25:29.815Z,8.05
2023-03-22T04:28:04.161Z,8.01
2023-03-22T04:30:36.361Z,8.00
2023-03-22T04:33:22.783Z,7.95
2023-03-22T04:36:10.331Z,7.87
2023-03-22T04:38:49.449Z,7.80
2023-03-22T04:41:20.414Z,7.77
2023-03-22T04:43:50.921Z,7.77
2023-03-22T04:46:17.937Z,7.76
2023-03-22T04:48:50.850Z,7.75
2023-03-22T04:51:18.108Z,7.76
2023-03-22T04:54:00.369Z,7.77
2023-03-22T04:56:27.045Z,7.77
2023-03-22T04:58:54.178Z,7.78
2023-03-22T05:01:20.654Z,7.79
2023-03-22T05:03:54.133Z,7.83
2023-03-22T05:06:22.616Z,7.84
2023-03-22T05:09:05.986Z,7.84
2023-03-22T05:11:32.484Z,7.83
2023-03-22T05:14:13.053Z,7.75
2023-03-22T05:16:40.740Z,7.75
2023-03-22T05:19:13.889Z,7.72
2023-03-22T05:21:44.151Z,7.74
2023-03-22T05:24:11.563Z,7.71
2023-03-22T05:26:42.298Z,7.65
2023-03-22T05:29:11.096Z,7.65
2023-03-22T05:32:00.747Z,7.59
2023-03-22T05:34:35.257Z,7.57
2023-03-22T05:37:10.207Z,7.56
2023-03-22T05:39:47.676Z,7.60
2023-03-22T05:42:14.271Z,7.61
2023-03-22T05:44:40.919Z,7.64
2023-03-22T05:47:11.489Z,7.70
2023-03-22T05:49:45.599Z,7.77
2023-03-22T05:52:12.303Z,7.85
2023-03-22T05:54:56.743Z,7.89
2023-03-22T05:57:23.288Z,7.91
2023-03-22T05:59:49.815Z,7.99
2023-03-22T06:02:23.720Z,8.04
2023-03-22T06:04:50.302Z,8.09
2023-03-22T06:07:18.204Z,8.12
2023-03-22T06:09:50.142Z,8.13
2023-03-22T06:12:24.719Z,8.14
2023-03-22T06:15:08.822Z,8.15
2023-03-22T06:17:35.502Z,8.16
2023-03-22T06:20:11.842Z,8.20
2023-03-22T06:22:41.319Z,8.21
2023-03-22T06:25:09.362Z,8.34
2023-03-22T06:27:40.499Z,8.43
2023-03-22T06:30:08.150Z,8.51
2023-03-22T06:32:45.912Z,8.60
2023-03-22T06:35:14.213Z,8.70
2023-03-22T06:37:40.688Z,8.78
2023-03-22T06:40:08.989Z,8.88
2023-03-22T06:42:35.801Z,8.95
2023-03-22T06:45:08.650Z,9.09
2023-03-22T06:47:37.746Z,9.19
2023-03-22T06:50:04.387Z,9.31
2023-03-22T06:52:50.818Z,9.44
2023-03-22T06:55:17.653Z,9.54
2023-03-22T06:57:44.095Z,9.65
2023-03-22T07:00:11.204Z,9.78
2023-03-22T07:02:37.688Z,9.90
2023-03-22T07:05:28.129Z,10.06
2023-03-22T07:07:54.691Z,10.20
2023-03-22T07:10:21.328Z,10.35
2023-03-22T07:12:48.643Z,10.50
2023-03-22T07:15:17.576Z,10.63
2023-03-22T07:18:04.417Z,10.75
2023-03-22T07:20:36.754Z,10.83
2023-03-22T07:23:04.569Z,10.91
2023-03-22T07:25:35.478Z,10.96
2023-03-22T07:28:16.268Z,11.03
2023-03-22T07:30:43.645Z,11.11
2023-03-22T07:33:11.169Z,11.18
2023-03-22T07:35:39.755Z,11.21
2023-03-22T07:38:06.509Z,11.13
2023-03-22T07:40:33.610Z,11.41
2023-03-22T07:43:00.411Z,11.48
2023-03-22T07:45:57.997Z,11.57
2023-03-22T07:48:43.159Z,11.69
2023-03-22T07:51:28.138Z,11.75
2023-03-22T07:53:54.584Z,11.79
2023-03-22T07:56:21.181Z,11.86
2023-03-22T07:58:47.628Z,11.94
2023-03-22T08:01:14.153Z,12.00
2023-03-22T08:04:03.589Z,12.13
2023-03-22T08:06:49.053Z,12.24
2023-03-22T08:09:16.354Z,12.35
2023-03-22T08:11:42.891Z,12.45
2023-03-22T08:14:09.722Z,12.58
2023-03-22T08:16:38.476Z,12.68
2023-03-22T08:19:05.959Z,12.77
2023-03-22T08:21:36.213Z,12.88
2023-03-22T08:24:04.119Z,12.98
2023-03-22T08:26:39.592Z,13.05
2023-03-22T08:29:14.832Z,13.12
2023-03-22T08:31:46.937Z,13.23
2023-03-22T08:34:13.364Z,13.37
2023-03-22T08:36:39.801Z,13.36
2023-03-22T08:39:08.315Z,13.43
2023-03-22T08:41:45.884Z,13.54
2023-03-22T08:44:12.899Z,13.61
2023-03-22T08:46:40.262Z,13.76
2023-03-22T08:49:06.847Z,13.82
2023-03-22T08:51:39.069Z,13.83
2023-03-22T08:54:13.627Z,13.88
2023-03-22T08:57:19.218Z,14.02
2023-03-22T08:59:58.789Z,14.05
2023-03-22T09:02:33.366Z,14.00
2023-03-22T09:05:00.597Z,14.10
2023-03-22T09:07:27.752Z,14.14
2023-03-22T09:10:09.677Z,14.24
2023-03-22T09:12:39.337Z,14.27
2023-03-22T09:15:07.414Z,14.35
2023-03-22T09:17:36.349Z,14.46
2023-03-22T09:20:12.504Z,14.46
2023-03-22T09:22:41.825Z,14.49
2023-03-22T09:25:12.524Z,14.64
2023-03-22T09:27:41.959Z,14.71
2023-03-22T09:30:09.185Z,14.78
2023-03-22T09:32:35.904Z,14.87
2023-03-22T09:35:04.262Z,14.88
2023-03-22T09:37:39.192Z,15.03
2023-03-22T09:40:07.792Z,15.10
2023-03-22T09:42:47.324Z,15.21
2023-03-22T09:45:20.503Z,15.36
2023-03-22T09:47:51.078Z,15.45
2023-03-22T09:50:23.701Z,15.57
2023-03-22T09:52:51.258Z,15.63
2023-03-22T09:55:30.326Z,15.60
2023-03-22T09:58:13.684Z,15.60
2023-03-22T10:00:51.191Z,15.67
2023-03-22T10:03:42.489Z,15.72
2023-03-22T10:06:12.391Z,15.86
2023-03-22T10:08:54.110Z,15.89
2023-03-22T10:11:57.282Z,15.95
2023-03-22T10:14:36.928Z,16.00
2023-03-22T10:17:08.784Z,16.05
2023-03-22T10:19:47.129Z,16.23
2023-03-22T10:22:16.958Z,16.32
2023-03-22T10:24:46.820Z,16.40
2023-03-22T10:27:19.574Z,16.49
2023-03-22T10:29:51.145Z,16.58
2023-03-22T10:32:22.480Z,16.73
2023-03-22T10:34:49.428Z,16.81
2023-03-22T10:37:27.848Z,16.82
2023-03-22T10:39:57.995Z,16.76
2023-03-22T10:42:27.925Z,16.82
2023-03-22T10:44:56.110Z,16.84
2023-03-22T10:47:40.312Z,16.84
2023-03-22T10:50:26.500Z,16.95
2023-03-22T10:53:04.532Z,17.03
2023-03-22T10:55:31.095Z,17.11
2023-03-22T10:58:16.582Z,17.17
2023-03-22T11:00:49.144Z,17.26
2023-03-22T11:03:34.457Z,17.33
2023-03-22T11:06:12.793Z,17.44
2023-03-22T11:08:46.833Z,17.59
2023-03-22T11:11:17.460Z,17.75
2023-03-22T11:13:50.308Z,17.85
2023-03-22T11:16:18.041Z,18.07
2023-03-22T11:18:44.574Z,18.23
2023-03-22T11:21:15.030Z,18.39
2023-03-22T11:23:50.605Z,18.49
2023-03-22T11:29:04.503Z,18.81
2023-03-22T11:31:48.883Z,18.87
2023-03-22T11:34:18.649Z,18.53
2023-03-22T11:36:52.701Z,18.29
2023-03-22T11:39:19.120Z,18.41
2023-03-22T11:41:45.737Z,18.49
2023-03-22T11:44:16.549Z,18.55
2023-03-22T11:46:54.462Z,18.82
2023-03-22T11:49:27.009Z,19.04
2023-03-22T11:51:55.633Z,19.11
2023-03-22T11:54:35.485Z,19.27
2023-03-22T11:57:13.006Z,19.60
2023-03-22T11:59:53.229Z,19.69
2023-03-22T12:02:38.032Z,19.77
2023-03-22T12:05:11.102Z,19.98
2023-03-22T12:07:38.546Z,20.10
2023-03-22T12:10:22.803Z,20.15
2023-03-22T12:12:58.191Z,20.28
2023-03-22T12:15:34.597Z,20.32
2023-03-22T12:18:15.637Z,20.33
2023-03-22T12:20:53.568Z,20.35
2023-03-22T12:23:23.263Z,20.35
2023-03-22T12:26:02.264Z,20.38
2023-03-22T12:28:34.368Z,20.50
2023-03-22T12:31:03.662Z,20.64
2023-03-22T12:33:47.256Z,20.72
2023-03-22T12:36:20.526Z,20.63
2023-03-22T12:38:54.022Z,20.64
2023-03-22T12:41:37.263Z,20.54
2023-03-22T12:44:08.066Z,20.35
2023-03-22T12:46:39.947Z,20.14
2023-03-22T12:49:26.337Z,19.93
2023-03-22T12:51:56.718Z,19.88
2023-03-22T12:54:25.325Z,19.91
2023-03-22T12:56:53.669Z,20.02
2023-03-22T12:59:26.520Z,20.05
2023-03-22T13:02:20.157Z,19.98
2023-03-22T13:04:57.972Z,19.91
2023-03-22T13:07:38.919Z,19.72
2023-03-22T13:10:34.065Z,19.58
2023-03-22T13:13:21.746Z,19.79
2023-03-22T13:15:59.257Z,20.35
2023-03-22T13:18:38.241Z,20.87
2023-03-22T13:21:29.767Z,21.15
2023-03-22T13:24:05.886Z,21.46
2023-03-22T13:26:52.707Z,21.61
2023-03-22T13:29:20.891Z,21.73
2023-03-22T13:31:58.511Z,21.70
2023-03-22T13:34:38.500Z,21.56
2023-03-22T13:37:10.987Z,21.53
2023-03-22T13:39:39.270Z,21.40
2023-03-22T13:42:19.794Z,21.44
2023-03-22T13:44:53.799Z,21.45
2023-03-22T13:47:45.774Z,21.45
2023-03-22T13:50:18.709Z,21.21
2023-03-22T13:53:03.798Z,21.07
2023-03-22T13:55:53.268Z,21.37
2023-03-22T13:58:52.291Z,21.57
2023-03-22T14:01:29.933Z,21.70
2023-03-22T14:04:01.154Z,21.74
2023-03-22T14:06:33.677Z,21.48
2023-03-22T14:09:43.517Z,21.21
2023-03-22T14:12:32.362Z,21.09
2023-03-22T14:15:02.608Z,21.03
2023-03-22T14:17:41.870Z,20.88
2023-03-22T14:20:15.253Z,20.59
